sensor_id;sensor_type;location;lat;lon;timestamp;P1;P2;P0
74434;PMS7003;62867;52.038;29.256;2023-03-14T16:39:23;18;16;10
74434;PMS7003;62867;52.038;29.256;2023-03-14T16:44:00;16.6;14;8.4
74434;PMS7003;62867;52.038;29.256;2023-03-14T16:48:53;15;11.2;7.6
74434;PMS7003;62867;52.038;29.256;2023-03-14T16:53:31;12.6;10.2;7.6
74434;PMS7003;62867;52.038;29.256;2023-03-14T16:59:23;15.3;13;8.5
74434;PMS7003;62867;52.038;29.256;2023-03-14T17:03:41;11.8;9.8;6.8
74434;PMS7003;62867;52.038;29.256;2023-03-14T17:09:23;14;10.2;6.8
74434;PMS7003;62867;52.038;29.256;2023-03-14T17:14:23;10.6;8.4;5.8
74434;PMS7003;62867;52.038;29.256;2023-03-14T17:18:31;11.6;9.2;6.6
74434;PMS7003;62867;52.038;29.256;2023-03-14T17:23:31;9.6;8;5.4
74434;PMS7003;62867;52.038;29.256;2023-03-14T17:29:07;8.6;6.8;5
74434;PMS7003;62867;52.038;29.256;2023-03-14T17:34:09;9.8;8.8;6
74434;PMS7003;62867;52.038;29.256;2023-03-14T17:39:09;9;6.4;4.2
74434;PMS7003;62867;52.038;29.256;2023-03-14T17:44:07;6.2;5.4;3.2
74434;PMS7003;62867;52.038;29.256;2023-03-14T17:49:23;7.2;5.6;3.8
74434;PMS7003;62867;52.038;29.256;2023-03-14T17:54:09;6.6;5;3.2
74434;PMS7003;62867;52.038;29.256;2023-03-14T17:58:55;6.3;5.8;3.3
74434;PMS7003;62867;52.038;29.256;2023-03-14T18:03:51;5.8;4.6;3
74434;PMS7003;62867;52.038;29.256;2023-03-14T18:09:21;6;4.6;3
74434;PMS7003;62867;52.038;29.256;2023-03-14T18:13:55;6.6;6.4;3.8
74434;PMS7003;62867;52.038;29.256;2023-03-14T18:19:07;7.4;6;3.6
74434;PMS7003;62867;52.038;29.256;2023-03-14T18:24:05;5.8;4.6;3
74434;PMS7003;62867;52.038;29.256;2023-03-14T18:28:31;7.4;5;3.2
74434;PMS7003;62867;52.038;29.256;2023-03-14T18:33:43;6;5;3
74434;PMS7003;62867;52.038;29.256;2023-03-14T18:38:31;6;4.8;3.4
74434;PMS7003;62867;52.038;29.256;2023-03-14T18:43:31;7.2;5.6;3.6
74434;PMS7003;62867;52.038;29.256;2023-03-14T18:49:07;6.6;5.2;2.8
74434;PMS7003;62867;52.038;29.256;2023-03-14T18:54:21;5;4.6;2.8
74434;PMS7003;62867;52.038;29.256;2023-03-14T18:58:39;6.3;5;3.3
74434;PMS7003;62867;52.038;29.256;2023-03-14T19:03:55;7;4.6;2.8
74434;PMS7003;62867;52.038;29.256;2023-03-14T19:09:08;7;5.8;3.4
74434;PMS7003;62867;52.038;29.256;2023-03-14T19:13:53;7.4;5.6;4.2
74434;PMS7003;62867;52.038;29.256;2023-03-14T19:18:45;6.4;5;3.4
74434;PMS7003;62867;52.038;29.256;2023-03-14T19:24:05;8.4;5.4;3.2
74434;PMS7003;62867;52.038;29.256;2023-03-14T19:29:21;6.8;5;3.2
74434;PMS7003;62867;52.038;29.256;2023-03-14T19:34:21;10.4;7.4;4.2
74434;PMS7003;62867;52.038;29.256;2023-03-14T19:38:39;9.4;7;4
74434;PMS7003;62867;52.038;29.256;2023-03-14T19:44:19;8.4;6.6;4
74434;PMS7003;62867;52.038;29.256;2023-03-14T19:49:07;5.2;4.8;3
74434;PMS7003;62867;52.038;29.256;2023-03-14T19:53:39;8;5.4;3.6
74434;PMS7003;62867;52.038;29.256;2023-03-14T19:58:51;6.3;5.3;3.8
74434;PMS7003;62867;52.038;29.256;2023-03-14T20:04:21;7.8;6;3.6
74434;PMS7003;62867;52.038;29.256;2023-03-14T20:08:39;8.8;6.2;3.8
74434;PMS7003;62867;52.038;29.256;2023-03-14T20:14:03;5.6;4.8;3.2
74434;PMS7003;62867;52.038;29.256;2023-03-14T20:19:21;6.4;5.4;3.8
74434;PMS7003;62867;52.038;29.256;2023-03-14T20:23:45;7;5.4;3.6
74434;PMS7003;62867;52.038;29.256;2023-03-14T20:28:45;7.4;5.6;4
74434;PMS7003;62867;52.038;29.256;2023-03-14T20:33:47;6.2;5.6;3.4
74434;PMS7003;62867;52.038;29.256;2023-03-14T20:38:39;7;5.4;3.8
74434;PMS7003;62867;52.038;29.256;2023-03-14T20:44:07;6.6;5.2;3
74434;PMS7003;62867;52.038;29.256;2023-03-14T20:48:51;6.2;5.2;3.4
74434;PMS7003;62867;52.038;29.256;2023-03-14T20:54:21;6.8;4.6;2.8
74434;PMS7003;62867;52.038;29.256;2023-03-14T20:59:07;7;5.4;3
74434;PMS7003;62867;52.038;29.256;2023-03-14T21:03:31;7.8;5;3.5
74434;PMS7003;62867;52.038;29.256;2023-03-14T21:08:31;6;4.8;3
74434;PMS7003;62867;52.038;29.256;2023-03-14T21:14:21;7;5;3.2
74434;PMS7003;62867;52.038;29.256;2023-03-14T21:18:45;6.2;5.2;3.2
74434;PMS7003;62867;52.038;29.256;2023-03-14T21:24:03;6.2;5.2;3.2
74434;PMS7003;62867;52.038;29.256;2023-03-14T21:28:43;5.8;4.6;2.6
74434;PMS7003;62867;52.038;29.256;2023-03-14T21:33:29;5.6;4;2.8
74434;PMS7003;62867;52.038;29.256;2023-03-14T21:39:07;6.6;4.8;3
74434;PMS7003;62867;52.038;29.256;2023-03-14T21:44:05;5.2;4.2;2.8
74434;PMS7003;62867;52.038;29.256;2023-03-14T21:48:51;5.4;4.4;2.8
74434;PMS7003;62867;52.038;29.256;2023-03-14T21:54:07;6.2;4.6;2.6
74434;PMS7003;62867;52.038;29.256;2023-03-14T21:59:21;6;5;3
74434;PMS7003;62867;52.038;29.256;2023-03-14T22:03:51;6.8;5.3;3.3
74434;PMS7003;62867;52.038;29.256;2023-03-14T22:09:07;6;4.6;3.2
74434;PMS7003;62867;52.038;29.256;2023-03-14T22:14:07;6.8;4.8;3.2
74434;PMS7003;62867;52.038;29.256;2023-03-14T22:19:05;6.6;5.4;3.2
74434;PMS7003;62867;52.038;29.256;2023-03-14T22:23:53;8.6;7;4.2
74434;PMS7003;62867;52.038;29.256;2023-03-14T22:29:05;14;8.2;4.2
74434;PMS7003;62867;52.038;29.256;2023-03-14T22:34:21;10.8;7;4.4
74434;PMS7003;62867;52.038;29.256;2023-03-14T22:39:21;11;7.4;4.2
74434;PMS7003;62867;52.038;29.256;2023-03-14T22:43:31;12.6;9.6;4.4
74434;PMS7003;62867;52.038;29.256;2023-03-14T22:49:07;13.6;8.6;4.6
74434;PMS7003;62867;52.038;29.256;2023-03-14T22:54:07;11.8;8.4;4.4
74434;PMS7003;62867;52.038;29.256;2023-03-14T22:58:31;7.2;5.4;3.6
74434;PMS7003;62867;52.038;29.256;2023-03-14T23:03:49;5.3;5;3.5
74434;PMS7003;62867;52.038;29.256;2023-03-14T23:09:21;8.2;4.8;3
74434;PMS7003;62867;52.038;29.256;2023-03-14T23:13:39;6.6;4.6;2.8
74434;PMS7003;62867;52.038;29.256;2023-03-14T23:18:49;6.6;4.6;3
74434;PMS7003;62867;52.038;29.256;2023-03-14T23:24:21;5.8;4.8;3.4
74434;PMS7003;62867;52.038;29.256;2023-03-14T23:28:53;6;5;3.2
74434;PMS7003;62867;52.038;29.256;2023-03-14T23:33:31;6;5;3
74434;PMS7003;62867;52.038;29.256;2023-03-14T23:38:31;6.4;5.6;3.2
74434;PMS7003;62867;52.038;29.256;2023-03-14T23:43:31;9.8;5.6;3.2
74434;PMS7003;62867;52.038;29.256;2023-03-14T23:49:07;6.2;4.8;3.2
74434;PMS7003;62867;52.038;29.256;2023-03-14T23:53:51;6.2;4.6;3.2
74434;PMS7003;62867;52.038;29.256;2023-03-14T23:58:51;8.2;6.4;4
